Terminal Aerodrome Forecast
Issued by NWS Charleston, WV

Current Version | Previous Version | Text Only | Print | Product List | Glossary Off
Versions: 1 2 3 4 5 6 7 8 9 10 11 12 13 14 15 16 17 18 19 20 21 22 23

000
FTUS41 KRLX 311133
TAFPKB
TAF
KPKB 311133Z 3112/0112 20005KT P6SM BKN080
     FM311600 22008G15KT P6SM VCTS SCT035CB
     FM312200 21007KT P6SM BKN030 BKN080
     FM010300 33004KT 6SM BR BKN020
     FM010800 VRB03KT 4SM BR OVC010=

USA.gov is the U.S. government's official web portal to all federal, state and local government web resources and services.